sensor_id;sensor_type;location;lat;lon;timestamp;temperature;humidity
20726;DHT22;10524;48.132;8.518;2023-05-10T00:01:56;10.70;99.90
20726;DHT22;10524;48.132;8.518;2023-05-10T00:04:22;10.60;99.90
20726;DHT22;10524;48.132;8.518;2023-05-10T00:06:47;10.50;99.90
20726;DHT22;10524;48.132;8.518;2023-05-10T00:09:14;10.40;99.90
20726;DHT22;10524;48.132;8.518;2023-05-10T00:11:39;10.40;99.90
20726;DHT22;10524;48.132;8.518;2023-05-10T00:14:05;10.50;99.90
20726;DHT22;10524;48.132;8.518;2023-05-10T00:16:31;10.50;99.90
20726;DHT22;10524;48.132;8.518;2023-05-10T00:18:56;10.50;99.90
20726;DHT22;10524;48.132;8.518;2023-05-10T00:21:22;10.50;99.90
20726;DHT22;10524;48.132;8.518;2023-05-10T00:23:47;10.40;99.90
20726;DHT22;10524;48.132;8.518;2023-05-10T00:26:13;10.40;99.90
20726;DHT22;10524;48.132;8.518;2023-05-10T00:28:39;10.40;99.90
20726;DHT22;10524;48.132;8.518;2023-05-10T00:31:04;10.40;99.90
20726;DHT22;10524;48.132;8.518;2023-05-10T00:33:30;10.30;99.90
20726;DHT22;10524;48.132;8.518;2023-05-10T00:35:56;10.30;99.90
20726;DHT22;10524;48.132;8.518;2023-05-10T00:38:21;10.30;99.90
20726;DHT22;10524;48.132;8.518;2023-05-10T00:40:47;10.20;99.90
20726;DHT22;10524;48.132;8.518;2023-05-10T00:43:13;10.20;99.90
20726;DHT22;10524;48.132;8.518;2023-05-10T00:45:40;10.30;99.90
20726;DHT22;10524;48.132;8.518;2023-05-10T00:48:05;10.30;99.90
20726;DHT22;10524;48.132;8.518;2023-05-10T00:50:32;10.30;99.90
20726;DHT22;10524;48.132;8.518;2023-05-10T00:52:59;10.30;99.90
20726;DHT22;10524;48.132;8.518;2023-05-10T00:55:25;10.20;99.90
20726;DHT22;10524;48.132;8.518;2023-05-10T00:57:52;10.20;99.90
20726;DHT22;10524;48.132;8.518;2023-05-10T01:00:18;10.20;99.90
20726;DHT22;10524;48.132;8.518;2023-05-10T01:02:47;10.10;99.90
20726;DHT22;10524;48.132;8.518;2023-05-10T01:05:13;10.10;99.90
20726;DHT22;10524;48.132;8.518;2023-05-10T01:07:39;10.00;99.90
20726;DHT22;10524;48.132;8.518;2023-05-10T01:10:06;9.90;99.90
20726;DHT22;10524;48.132;8.518;2023-05-10T01:12:35;9.90;99.90
20726;DHT22;10524;48.132;8.518;2023-05-10T01:15:02;9.90;99.90
20726;DHT22;10524;48.132;8.518;2023-05-10T01:17:29;9.80;99.90
20726;DHT22;10524;48.132;8.518;2023-05-10T01:19:54;9.80;99.90
20726;DHT22;10524;48.132;8.518;2023-05-10T01:39:04;9.80;99.90
20726;DHT22;10524;48.132;8.518;2023-05-10T01:44:38;10.00;99.90
20726;DHT22;10524;48.132;8.518;2023-05-10T01:47:09;10.00;99.90
20726;DHT22;10524;48.132;8.518;2023-05-10T01:49:49;10.00;99.90
20726;DHT22;10524;48.132;8.518;2023-05-10T01:52:22;10.10;99.90
20726;DHT22;10524;48.132;8.518;2023-05-10T01:55:02;10.10;99.90
20726;DHT22;10524;48.132;8.518;2023-05-10T01:57:34;10.10;99.90
20726;DHT22;10524;48.132;8.518;2023-05-10T02:00:02;10.10;99.90
20726;DHT22;10524;48.132;8.518;2023-05-10T02:02:32;10.10;99.90
20726;DHT22;10524;48.132;8.518;2023-05-10T02:04:59;10.00;99.90
20726;DHT22;10524;48.132;8.518;2023-05-10T02:07:27;10.00;99.90
20726;DHT22;10524;48.132;8.518;2023-05-10T02:09:55;10.00;99.90
20726;DHT22;10524;48.132;8.518;2023-05-10T02:12:22;10.00;99.90
20726;DHT22;10524;48.132;8.518;2023-05-10T02:14:50;10.10;99.90
20726;DHT22;10524;48.132;8.518;2023-05-10T02:17:18;10.00;99.90
20726;DHT22;10524;48.132;8.518;2023-05-10T02:19:44;10.10;99.90
20726;DHT22;10524;48.132;8.518;2023-05-10T02:22:13;10.10;99.90
20726;DHT22;10524;48.132;8.518;2023-05-10T02:24:39;10.10;99.90
20726;DHT22;10524;48.132;8.518;2023-05-10T02:27:06;10.10;99.90
20726;DHT22;10524;48.132;8.518;2023-05-10T02:29:33;10.10;99.90
20726;DHT22;10524;48.132;8.518;2023-05-10T02:32:00;10.00;99.90
20726;DHT22;10524;48.132;8.518;2023-05-10T02:34:27;10.00;99.90
20726;DHT22;10524;48.132;8.518;2023-05-10T02:36:54;9.90;99.90
20726;DHT22;10524;48.132;8.518;2023-05-10T02:39:21;9.90;99.90
20726;DHT22;10524;48.132;8.518;2023-05-10T02:41:49;9.90;99.90
20726;DHT22;10524;48.132;8.518;2023-05-10T02:44:17;9.90;99.90
20726;DHT22;10524;48.132;8.518;2023-05-10T02:46:43;9.90;99.90
20726;DHT22;10524;48.132;8.518;2023-05-10T02:49:10;9.90;99.90
20726;DHT22;10524;48.132;8.518;2023-05-10T02:51:39;10.00;99.90
20726;DHT22;10524;48.132;8.518;2023-05-10T02:54:30;10.00;99.90
20726;DHT22;10524;48.132;8.518;2023-05-10T02:56:58;9.90;99.90
20726;DHT22;10524;48.132;8.518;2023-05-10T02:59:28;9.90;99.90
20726;DHT22;10524;48.132;8.518;2023-05-10T03:01:53;9.80;99.90
20726;DHT22;10524;48.132;8.518;2023-05-10T03:04:19;9.80;99.90
20726;DHT22;10524;48.132;8.518;2023-05-10T03:06:45;9.70;99.90
20726;DHT22;10524;48.132;8.518;2023-05-10T03:09:11;9.60;99.90
20726;DHT22;10524;48.132;8.518;2023-05-10T03:12:06;9.60;99.90
20726;DHT22;10524;48.132;8.518;2023-05-10T03:14:49;9.60;99.90
20726;DHT22;10524;48.132;8.518;2023-05-10T03:19:55;9.50;99.90
20726;DHT22;10524;48.132;8.518;2023-05-10T03:22:25;9.50;99.90
20726;DHT22;10524;48.132;8.518;2023-05-10T03:24:55;9.40;99.90
20726;DHT22;10524;48.132;8.518;2023-05-10T03:27:22;9.40;99.90
20726;DHT22;10524;48.132;8.518;2023-05-10T03:29:49;9.40;99.90
20726;DHT22;10524;48.132;8.518;2023-05-10T03:32:16;9.40;99.90
20726;DHT22;10524;48.132;8.518;2023-05-10T03:34:42;9.40;99.90
20726;DHT22;10524;48.132;8.518;2023-05-10T03:37:11;9.40;99.90
20726;DHT22;10524;48.132;8.518;2023-05-10T03:39:36;9.40;99.90
20726;DHT22;10524;48.132;8.518;2023-05-10T03:42:02;9.40;99.90
20726;DHT22;10524;48.132;8.518;2023-05-10T03:44:28;9.50;99.90
20726;DHT22;10524;48.132;8.518;2023-05-10T03:46:53;9.50;99.90
20726;DHT22;10524;48.132;8.518;2023-05-10T03:49:19;9.50;99.90
20726;DHT22;10524;48.132;8.518;2023-05-10T03:51:45;9.50;99.90
20726;DHT22;10524;48.132;8.518;2023-05-10T03:54:10;9.50;99.90
20726;DHT22;10524;48.132;8.518;2023-05-10T03:56:36;9.50;99.90
20726;DHT22;10524;48.132;8.518;2023-05-10T03:59:02;9.50;99.90
20726;DHT22;10524;48.132;8.518;2023-05-10T04:01:33;9.50;99.90
20726;DHT22;10524;48.132;8.518;2023-05-10T04:03:59;9.60;99.90
20726;DHT22;10524;48.132;8.518;2023-05-10T04:06:24;9.50;99.90
20726;DHT22;10524;48.132;8.518;2023-05-10T04:08:50;9.50;99.90
20726;DHT22;10524;48.132;8.518;2023-05-10T04:11:15;9.40;99.90
20726;DHT22;10524;48.132;8.518;2023-05-10T04:13:41;9.40;99.90
20726;DHT22;10524;48.132;8.518;2023-05-10T04:16:08;9.50;99.90
20726;DHT22;10524;48.132;8.518;2023-05-10T04:18:34;9.50;99.90
20726;DHT22;10524;48.132;8.518;2023-05-10T04:21:00;9.50;99.90
20726;DHT22;10524;48.132;8.518;2023-05-10T04:23:27;9.50;99.90
20726;DHT22;10524;48.132;8.518;2023-05-10T04:25:58;9.60;99.90
20726;DHT22;10524;48.132;8.518;2023-05-10T04:28:24;9.60;99.90
20726;DHT22;10524;48.132;8.518;2023-05-10T04:30:49;9.60;99.90
20726;DHT22;10524;48.132;8.518;2023-05-10T04:33:15;9.60;99.90
20726;DHT22;10524;48.132;8.518;2023-05-10T04:35:41;9.60;99.90
20726;DHT22;10524;48.132;8.518;2023-05-10T04:38:06;9.70;99.90
20726;DHT22;10524;48.132;8.518;2023-05-10T04:40:32;9.70;99.90
20726;DHT22;10524;48.132;8.518;2023-05-10T04:42:57;9.70;99.90
20726;DHT22;10524;48.132;8.518;2023-05-10T04:45:23;9.80;99.90
20726;DHT22;10524;48.132;8.518;2023-05-10T04:47:49;9.80;99.90
20726;DHT22;10524;48.132;8.518;2023-05-10T04:50:14;9.90;99.90
20726;DHT22;10524;48.132;8.518;2023-05-10T04:52:40;9.90;99.90
20726;DHT22;10524;48.132;8.518;2023-05-10T04:55:06;9.80;99.90
20726;DHT22;10524;48.132;8.518;2023-05-10T04:57:34;9.80;99.90
20726;DHT22;10524;48.132;8.518;2023-05-10T05:00:00;9.90;99.90
20726;DHT22;10524;48.132;8.518;2023-05-10T05:02:26;9.90;99.90
20726;DHT22;10524;48.132;8.518;2023-05-10T05:04:51;9.90;99.90
20726;DHT22;10524;48.132;8.518;2023-05-10T05:07:17;9.90;99.90
20726;DHT22;10524;48.132;8.518;2023-05-10T05:09:43;9.90;99.90
20726;DHT22;10524;48.132;8.518;2023-05-10T05:12:08;9.90;99.90
20726;DHT22;10524;48.132;8.518;2023-05-10T05:14:39;10.00;99.90
20726;DHT22;10524;48.132;8.518;2023-05-10T05:17:05;10.10;99.90
20726;DHT22;10524;48.132;8.518;2023-05-10T05:19:31;10.10;99.90
20726;DHT22;10524;48.132;8.518;2023-05-10T05:21:57;10.10;99.90
20726;DHT22;10524;48.132;8.518;2023-05-10T05:24:22;10.10;99.90
20726;DHT22;10524;48.132;8.518;2023-05-10T05:26:48;10.10;99.90
20726;DHT22;10524;48.132;8.518;2023-05-10T05:29:14;10.10;99.90
20726;DHT22;10524;48.132;8.518;2023-05-10T05:31:39;10.20;99.90
20726;DHT22;10524;48.132;8.518;2023-05-10T05:34:05;10.20;99.90
20726;DHT22;10524;48.132;8.518;2023-05-10T05:36:32;10.20;99.90
20726;DHT22;10524;48.132;8.518;2023-05-10T05:38:58;10.30;99.90
20726;DHT22;10524;48.132;8.518;2023-05-10T05:41:23;10.40;99.90
20726;DHT22;10524;48.132;8.518;2023-05-10T05:43:49;10.50;99.90
20726;DHT22;10524;48.132;8.518;2023-05-10T05:46:15;10.60;99.90
20726;DHT22;10524;48.132;8.518;2023-05-10T05:48:41;10.60;99.90
20726;DHT22;10524;48.132;8.518;2023-05-10T05:51:06;10.70;99.90
20726;DHT22;10524;48.132;8.518;2023-05-10T05:53:32;10.50;99.90
20726;DHT22;10524;48.132;8.518;2023-05-10T05:55:58;10.50;99.90
20726;DHT22;10524;48.132;8.518;2023-05-10T05:58:25;10.50;99.90
20726;DHT22;10524;48.132;8.518;2023-05-10T06:00:51;10.50;99.90
20726;DHT22;10524;48.132;8.518;2023-05-10T06:03:18;10.60;99.90
20726;DHT22;10524;48.132;8.518;2023-05-10T06:05:44;10.50;99.90
20726;DHT22;10524;48.132;8.518;2023-05-10T06:08:09;10.70;99.90
20726;DHT22;10524;48.132;8.518;2023-05-10T06:10:36;10.70;99.90
20726;DHT22;10524;48.132;8.518;2023-05-10T06:13:01;10.80;99.90
20726;DHT22;10524;48.132;8.518;2023-05-10T06:15:27;10.90;99.90
20726;DHT22;10524;48.132;8.518;2023-05-10T06:17:53;11.10;99.90
20726;DHT22;10524;48.132;8.518;2023-05-10T06:20:18;11.20;99.90
20726;DHT22;10524;48.132;8.518;2023-05-10T06:22:44;11.30;99.90
20726;DHT22;10524;48.132;8.518;2023-05-10T06:25:10;11.40;99.90
20726;DHT22;10524;48.132;8.518;2023-05-10T06:27:36;11.40;99.90
20726;DHT22;10524;48.132;8.518;2023-05-10T06:30:02;11.50;99.90
20726;DHT22;10524;48.132;8.518;2023-05-10T06:32:28;11.50;99.90
20726;DHT22;10524;48.132;8.518;2023-05-10T06:34:54;11.70;99.90
20726;DHT22;10524;48.132;8.518;2023-05-10T06:37:19;12.00;99.90
20726;DHT22;10524;48.132;8.518;2023-05-10T06:39:45;12.00;99.90
20726;DHT22;10524;48.132;8.518;2023-05-10T06:42:11;12.10;99.90
20726;DHT22;10524;48.132;8.518;2023-05-10T06:44:36;12.20;99.90
20726;DHT22;10524;48.132;8.518;2023-05-10T06:47:02;12.20;99.90
20726;DHT22;10524;48.132;8.518;2023-05-10T06:49:28;12.20;99.90
20726;DHT22;10524;48.132;8.518;2023-05-10T06:51:55;12.40;99.90
20726;DHT22;10524;48.132;8.518;2023-05-10T06:54:21;12.50;99.90
20726;DHT22;10524;48.132;8.518;2023-05-10T06:56:47;12.70;99.90
20726;DHT22;10524;48.132;8.518;2023-05-10T06:59:12;12.70;99.90
20726;DHT22;10524;48.132;8.518;2023-05-10T07:01:39;12.50;99.90
20726;DHT22;10524;48.132;8.518;2023-05-10T07:04:05;12.20;99.90
20726;DHT22;10524;48.132;8.518;2023-05-10T07:06:30;11.90;99.90
20726;DHT22;10524;48.132;8.518;2023-05-10T07:08:56;11.50;99.90
20726;DHT22;10524;48.132;8.518;2023-05-10T07:11:22;11.10;99.90
20726;DHT22;10524;48.132;8.518;2023-05-10T07:13:48;10.80;99.90
20726;DHT22;10524;48.132;8.518;2023-05-10T07:16:13;10.60;99.90
20726;DHT22;10524;48.132;8.518;2023-05-10T07:18:39;10.50;99.90
20726;DHT22;10524;48.132;8.518;2023-05-10T07:21:05;10.40;99.90
20726;DHT22;10524;48.132;8.518;2023-05-10T07:23:30;10.30;99.90
20726;DHT22;10524;48.132;8.518;2023-05-10T07:25:56;10.20;99.90
20726;DHT22;10524;48.132;8.518;2023-05-10T07:28:23;10.30;99.90
20726;DHT22;10524;48.132;8.518;2023-05-10T07:30:49;10.50;99.90
20726;DHT22;10524;48.132;8.518;2023-05-10T07:33:15;10.70;99.90
20726;DHT22;10524;48.132;8.518;2023-05-10T07:35:41;10.90;99.90
20726;DHT22;10524;48.132;8.518;2023-05-10T07:38:07;11.20;99.90
20726;DHT22;10524;48.132;8.518;2023-05-10T07:40:33;11.50;99.90
20726;DHT22;10524;48.132;8.518;2023-05-10T07:42:58;11.90;99.90
20726;DHT22;10524;48.132;8.518;2023-05-10T07:45:26;12.10;99.90
20726;DHT22;10524;48.132;8.518;2023-05-10T07:47:51;12.10;99.90
20726;DHT22;10524;48.132;8.518;2023-05-10T07:50:17;12.00;99.90
20726;DHT22;10524;48.132;8.518;2023-05-10T07:52:43;12.20;99.90
20726;DHT22;10524;48.132;8.518;2023-05-10T07:55:09;12.10;99.90
20726;DHT22;10524;48.132;8.518;2023-05-10T07:57:34;12.10;99.90
20726;DHT22;10524;48.132;8.518;2023-05-10T08:00:00;11.90;99.90
20726;DHT22;10524;48.132;8.518;2023-05-10T08:02:26;11.60;99.90
20726;DHT22;10524;48.132;8.518;2023-05-10T08:04:51;11.40;99.90
20726;DHT22;10524;48.132;8.518;2023-05-10T08:07:18;11.40;99.90
20726;DHT22;10524;48.132;8.518;2023-05-10T08:09:43;11.40;99.90
20726;DHT22;10524;48.132;8.518;2023-05-10T08:12:09;11.40;99.90
20726;DHT22;10524;48.132;8.518;2023-05-10T08:14:35;11.50;99.90
20726;DHT22;10524;48.132;8.518;2023-05-10T08:17:02;11.40;99.90
20726;DHT22;10524;48.132;8.518;2023-05-10T08:19:28;11.40;99.90
20726;DHT22;10524;48.132;8.518;2023-05-10T08:21:54;11.40;99.90
20726;DHT22;10524;48.132;8.518;2023-05-10T08:24:21;11.40;99.90
20726;DHT22;10524;48.132;8.518;2023-05-10T08:26:47;11.30;99.90
20726;DHT22;10524;48.132;8.518;2023-05-10T08:29:14;11.30;99.90
20726;DHT22;10524;48.132;8.518;2023-05-10T08:31:39;11.40;99.90
20726;DHT22;10524;48.132;8.518;2023-05-10T08:34:05;11.40;99.90
20726;DHT22;10524;48.132;8.518;2023-05-10T08:36:31;11.50;99.90
20726;DHT22;10524;48.132;8.518;2023-05-10T08:38:57;11.60;99.90
20726;DHT22;10524;48.132;8.518;2023-05-10T08:41:24;11.80;99.90
20726;DHT22;10524;48.132;8.518;2023-05-10T08:43:54;12.10;99.90
20726;DHT22;10524;48.132;8.518;2023-05-10T08:46:22;12.80;99.90
20726;DHT22;10524;48.132;8.518;2023-05-10T08:48:50;13.10;99.90
20726;DHT22;10524;48.132;8.518;2023-05-10T08:51:22;13.40;99.90
20726;DHT22;10524;48.132;8.518;2023-05-10T08:53:49;14.00;99.90
20726;DHT22;10524;48.132;8.518;2023-05-10T08:56:15;15.60;99.90
20726;DHT22;10524;48.132;8.518;2023-05-10T08:58:41;17.10;99.90
20726;DHT22;10524;48.132;8.518;2023-05-10T09:01:08;17.90;99.90
20726;DHT22;10524;48.132;8.518;2023-05-10T09:03:35;18.10;99.90
20726;DHT22;10524;48.132;8.518;2023-05-10T09:06:01;17.20;99.90
20726;DHT22;10524;48.132;8.518;2023-05-10T09:08:27;16.50;99.90
20726;DHT22;10524;48.132;8.518;2023-05-10T09:10:56;16.00;99.90
20726;DHT22;10524;48.132;8.518;2023-05-10T09:13:23;15.90;99.90
20726;DHT22;10524;48.132;8.518;2023-05-10T09:15:50;17.10;99.90
20726;DHT22;10524;48.132;8.518;2023-05-10T09:18:16;18.70;99.90
20726;DHT22;10524;48.132;8.518;2023-05-10T09:20:42;19.80;99.90
20726;DHT22;10524;48.132;8.518;2023-05-10T09:23:08;20.40;99.90
20726;DHT22;10524;48.132;8.518;2023-05-10T09:25:34;20.30;99.90
20726;DHT22;10524;48.132;8.518;2023-05-10T09:28:00;20.10;99.90
20726;DHT22;10524;48.132;8.518;2023-05-10T09:30:27;19.70;99.90
20726;DHT22;10524;48.132;8.518;2023-05-10T09:32:54;19.50;99.90
20726;DHT22;10524;48.132;8.518;2023-05-10T09:35:25;19.00;99.90
20726;DHT22;10524;48.132;8.518;2023-05-10T09:37:53;18.70;99.90
20726;DHT22;10524;48.132;8.518;2023-05-10T09:40:23;18.80;99.90
20726;DHT22;10524;48.132;8.518;2023-05-10T09:43:00;19.30;99.90
20726;DHT22;10524;48.132;8.518;2023-05-10T09:45:28;19.30;99.90
20726;DHT22;10524;48.132;8.518;2023-05-10T09:47:54;19.50;99.90
20726;DHT22;10524;48.132;8.518;2023-05-10T09:50:20;19.30;99.90
20726;DHT22;10524;48.132;8.518;2023-05-10T09:52:50;19.20;99.90
20726;DHT22;10524;48.132;8.518;2023-05-10T09:55:18;19.60;99.90
20726;DHT22;10524;48.132;8.518;2023-05-10T09:57:46;19.80;99.90
20726;DHT22;10524;48.132;8.518;2023-05-10T10:00:19;20.30;99.90
20726;DHT22;10524;48.132;8.518;2023-05-10T10:02:48;20.40;99.90
20726;DHT22;10524;48.132;8.518;2023-05-10T10:05:20;20.90;99.90
20726;DHT22;10524;48.132;8.518;2023-05-10T10:07:46;20.90;99.90
20726;DHT22;10524;48.132;8.518;2023-05-10T10:10:12;21.40;99.90
20726;DHT22;10524;48.132;8.518;2023-05-10T10:12:39;21.30;99.90
20726;DHT22;10524;48.132;8.518;2023-05-10T10:15:07;20.90;99.90
20726;DHT22;10524;48.132;8.518;2023-05-10T10:17:35;20.20;99.90
20726;DHT22;10524;48.132;8.518;2023-05-10T10:20:03;19.50;99.90
20726;DHT22;10524;48.132;8.518;2023-05-10T10:22:28;18.50;99.90
20726;DHT22;10524;48.132;8.518;2023-05-10T10:24:54;17.20;99.90
20726;DHT22;10524;48.132;8.518;2023-05-10T10:27:23;15.90;99.90
20726;DHT22;10524;48.132;8.518;2023-05-10T10:30:01;15.20;99.90
20726;DHT22;10524;48.132;8.518;2023-05-10T10:35:14;13.60;99.90
20726;DHT22;10524;48.132;8.518;2023-05-10T10:37:45;12.30;99.90
20726;DHT22;10524;48.132;8.518;2023-05-10T10:40:24;11.30;99.90
20726;DHT22;10524;48.132;8.518;2023-05-10T10:42:51;10.90;99.90
20726;DHT22;10524;48.132;8.518;2023-05-10T10:45:17;10.50;99.90
20726;DHT22;10524;48.132;8.518;2023-05-10T10:47:43;10.30;99.90
20726;DHT22;10524;48.132;8.518;2023-05-10T10:50:10;10.20;99.90
20726;DHT22;10524;48.132;8.518;2023-05-10T10:52:42;10.20;99.90
20726;DHT22;10524;48.132;8.518;2023-05-10T10:57:47;10.20;99.90
20726;DHT22;10524;48.132;8.518;2023-05-10T11:02:47;10.50;99.90
20726;DHT22;10524;48.132;8.518;2023-05-10T11:05:36;10.80;99.90
20726;DHT22;10524;48.132;8.518;2023-05-10T11:08:18;11.10;99.90
20726;DHT22;10524;48.132;8.518;2023-05-10T11:13:33;11.70;99.90
20726;DHT22;10524;48.132;8.518;2023-05-10T11:16:16;11.80;99.90
20726;DHT22;10524;48.132;8.518;2023-05-10T11:19:06;12.20;99.90
20726;DHT22;10524;48.132;8.518;2023-05-10T11:21:34;12.50;99.90
20726;DHT22;10524;48.132;8.518;2023-05-10T11:24:01;12.80;99.90
20726;DHT22;10524;48.132;8.518;2023-05-10T11:26:32;13.40;99.90
20726;DHT22;10524;48.132;8.518;2023-05-10T11:29:00;14.00;99.90
20726;DHT22;10524;48.132;8.518;2023-05-10T11:31:28;14.80;99.90
20726;DHT22;10524;48.132;8.518;2023-05-10T11:33:56;15.90;99.90
20726;DHT22;10524;48.132;8.518;2023-05-10T11:36:25;16.60;99.90
20726;DHT22;10524;48.132;8.518;2023-05-10T11:38:51;17.30;99.90
20726;DHT22;10524;48.132;8.518;2023-05-10T11:41:19;17.80;99.90
20726;DHT22;10524;48.132;8.518;2023-05-10T11:43:49;18.40;99.90
20726;DHT22;10524;48.132;8.518;2023-05-10T11:46:15;18.80;99.90
20726;DHT22;10524;48.132;8.518;2023-05-10T11:48:42;19.00;99.90
20726;DHT22;10524;48.132;8.518;2023-05-10T11:51:09;20.10;99.90
20726;DHT22;10524;48.132;8.518;2023-05-10T11:53:35;20.70;99.90
20726;DHT22;10524;48.132;8.518;2023-05-10T11:56:08;21.30;99.90
20726;DHT22;10524;48.132;8.518;2023-05-10T11:58:35;21.10;99.90
20726;DHT22;10524;48.132;8.518;2023-05-10T12:01:01;21.30;99.90
20726;DHT22;10524;48.132;8.518;2023-05-10T12:03:28;22.10;99.90
20726;DHT22;10524;48.132;8.518;2023-05-10T12:05:55;22.80;99.90
20726;DHT22;10524;48.132;8.518;2023-05-10T12:08:26;22.50;99.90
20726;DHT22;10524;48.132;8.518;2023-05-10T12:11:08;22.50;99.90
20726;DHT22;10524;48.132;8.518;2023-05-10T12:13:41;21.90;99.90
20726;DHT22;10524;48.132;8.518;2023-05-10T12:16:20;22.50;99.90
20726;DHT22;10524;48.132;8.518;2023-05-10T12:18:56;22.70;99.90
20726;DHT22;10524;48.132;8.518;2023-05-10T12:21:22;20.90;99.90
20726;DHT22;10524;48.132;8.518;2023-05-10T12:23:53;19.30;99.90
20726;DHT22;10524;48.132;8.518;2023-05-10T12:26:23;18.40;99.90
20726;DHT22;10524;48.132;8.518;2023-05-10T12:28:50;17.40;99.90
20726;DHT22;10524;48.132;8.518;2023-05-10T12:31:16;16.60;99.90
20726;DHT22;10524;48.132;8.518;2023-05-10T12:33:44;15.80;99.90
20726;DHT22;10524;48.132;8.518;2023-05-10T12:36:13;15.20;99.90
20726;DHT22;10524;48.132;8.518;2023-05-10T12:38:40;15.10;99.90
20726;DHT22;10524;48.132;8.518;2023-05-10T12:41:10;15.50;99.90
20726;DHT22;10524;48.132;8.518;2023-05-10T12:43:36;16.40;99.90
20726;DHT22;10524;48.132;8.518;2023-05-10T12:46:09;18.20;99.90
20726;DHT22;10524;48.132;8.518;2023-05-10T12:48:36;18.60;99.90
20726;DHT22;10524;48.132;8.518;2023-05-10T12:51:03;18.50;99.90
20726;DHT22;10524;48.132;8.518;2023-05-10T12:53:29;17.90;99.90
20726;DHT22;10524;48.132;8.518;2023-05-10T12:55:55;17.80;99.90
20726;DHT22;10524;48.132;8.518;2023-05-10T12:58:21;18.30;99.90
20726;DHT22;10524;48.132;8.518;2023-05-10T13:00:47;19.50;99.90
20726;DHT22;10524;48.132;8.518;2023-05-10T13:03:12;21.10;99.90
20726;DHT22;10524;48.132;8.518;2023-05-10T13:05:38;21.30;99.90
20726;DHT22;10524;48.132;8.518;2023-05-10T13:08:04;20.40;99.90
20726;DHT22;10524;48.132;8.518;2023-05-10T13:10:31;19.90;99.90
20726;DHT22;10524;48.132;8.518;2023-05-10T13:12:57;19.20;99.90
20726;DHT22;10524;48.132;8.518;2023-05-10T13:15:23;18.50;99.90
20726;DHT22;10524;48.132;8.518;2023-05-10T13:17:49;17.90;99.90
20726;DHT22;10524;48.132;8.518;2023-05-10T13:20:15;17.20;99.90
20726;DHT22;10524;48.132;8.518;2023-05-10T13:22:43;16.40;99.90
20726;DHT22;10524;48.132;8.518;2023-05-10T13:25:09;16.30;99.90
20726;DHT22;10524;48.132;8.518;2023-05-10T13:27:34;16.50;99.90
20726;DHT22;10524;48.132;8.518;2023-05-10T13:30:01;16.60;99.90
20726;DHT22;10524;48.132;8.518;2023-05-10T13:32:28;16.70;99.90
20726;DHT22;10524;48.132;8.518;2023-05-10T13:34:55;16.80;99.90
20726;DHT22;10524;48.132;8.518;2023-05-10T13:37:20;17.00;99.90
20726;DHT22;10524;48.132;8.518;2023-05-10T13:39:47;17.30;99.90
20726;DHT22;10524;48.132;8.518;2023-05-10T13:42:12;17.70;99.90
20726;DHT22;10524;48.132;8.518;2023-05-10T13:44:38;17.90;99.90
20726;DHT22;10524;48.132;8.518;2023-05-10T13:47:04;17.70;99.90
20726;DHT22;10524;48.132;8.518;2023-05-10T13:49:30;18.00;99.90
20726;DHT22;10524;48.132;8.518;2023-05-10T13:51:56;18.00;99.90
20726;DHT22;10524;48.132;8.518;2023-05-10T13:54:22;17.70;99.90
20726;DHT22;10524;48.132;8.518;2023-05-10T13:56:48;17.40;99.90
20726;DHT22;10524;48.132;8.518;2023-05-10T13:59:14;16.90;99.90
20726;DHT22;10524;48.132;8.518;2023-05-10T14:01:40;16.50;99.90
20726;DHT22;10524;48.132;8.518;2023-05-10T14:04:06;16.00;99.90
20726;DHT22;10524;48.132;8.518;2023-05-10T14:06:38;15.60;99.90
20726;DHT22;10524;48.132;8.518;2023-05-10T14:09:04;15.20;99.90
20726;DHT22;10524;48.132;8.518;2023-05-10T14:11:29;14.70;99.90
20726;DHT22;10524;48.132;8.518;2023-05-10T14:13:55;14.10;99.90
20726;DHT22;10524;48.132;8.518;2023-05-10T14:16:21;13.70;99.90
20726;DHT22;10524;48.132;8.518;2023-05-10T14:18:47;13.30;99.90
20726;DHT22;10524;48.132;8.518;2023-05-10T14:21:13;12.70;99.90
20726;DHT22;10524;48.132;8.518;2023-05-10T14:23:39;12.50;99.90
20726;DHT22;10524;48.132;8.518;2023-05-10T14:26:04;12.50;99.90
20726;DHT22;10524;48.132;8.518;2023-05-10T14:28:30;12.60;99.90
20726;DHT22;10524;48.132;8.518;2023-05-10T14:30:56;12.90;99.90
20726;DHT22;10524;48.132;8.518;2023-05-10T14:33:23;13.10;99.90
20726;DHT22;10524;48.132;8.518;2023-05-10T14:35:48;13.80;99.90
20726;DHT22;10524;48.132;8.518;2023-05-10T14:38:14;14.80;99.90
20726;DHT22;10524;48.132;8.518;2023-05-10T14:40:40;15.60;99.90
20726;DHT22;10524;48.132;8.518;2023-05-10T14:43:06;16.30;99.90
20726;DHT22;10524;48.132;8.518;2023-05-10T14:45:31;17.00;99.90
20726;DHT22;10524;48.132;8.518;2023-05-10T14:47:58;17.60;99.90
20726;DHT22;10524;48.132;8.518;2023-05-10T14:50:24;17.80;99.90
20726;DHT22;10524;48.132;8.518;2023-05-10T14:52:49;18.10;99.90
20726;DHT22;10524;48.132;8.518;2023-05-10T14:55:15;18.30;99.90
20726;DHT22;10524;48.132;8.518;2023-05-10T14:57:41;18.20;99.90
20726;DHT22;10524;48.132;8.518;2023-05-10T15:00:09;18.70;99.90
20726;DHT22;10524;48.132;8.518;2023-05-10T15:02:34;18.50;99.90
20726;DHT22;10524;48.132;8.518;2023-05-10T15:05:00;18.10;99.90
20726;DHT22;10524;48.132;8.518;2023-05-10T15:07:26;18.00;99.90
20726;DHT22;10524;48.132;8.518;2023-05-10T15:09:51;18.10;99.90
20726;DHT22;10524;48.132;8.518;2023-05-10T15:12:18;18.00;99.90
20726;DHT22;10524;48.132;8.518;2023-05-10T15:14:44;17.80;99.90
20726;DHT22;10524;48.132;8.518;2023-05-10T15:17:10;17.30;99.90
20726;DHT22;10524;48.132;8.518;2023-05-10T15:19:36;17.20;99.90
20726;DHT22;10524;48.132;8.518;2023-05-10T15:22:02;17.70;99.90
20726;DHT22;10524;48.132;8.518;2023-05-10T15:24:28;17.60;99.90
20726;DHT22;10524;48.132;8.518;2023-05-10T15:26:54;17.40;99.90
20726;DHT22;10524;48.132;8.518;2023-05-10T15:29:19;17.40;99.90
20726;DHT22;10524;48.132;8.518;2023-05-10T15:31:55;17.40;99.90
20726;DHT22;10524;48.132;8.518;2023-05-10T15:34:21;17.10;99.90
20726;DHT22;10524;48.132;8.518;2023-05-10T15:36:46;16.70;99.90
20726;DHT22;10524;48.132;8.518;2023-05-10T15:39:12;16.40;99.90
20726;DHT22;10524;48.132;8.518;2023-05-10T15:41:38;16.10;99.90
20726;DHT22;10524;48.132;8.518;2023-05-10T15:44:03;15.70;99.90
20726;DHT22;10524;48.132;8.518;2023-05-10T15:46:30;15.50;99.90
20726;DHT22;10524;48.132;8.518;2023-05-10T15:48:57;15.40;99.90
20726;DHT22;10524;48.132;8.518;2023-05-10T15:51:24;15.50;99.90
20726;DHT22;10524;48.132;8.518;2023-05-10T15:53:49;15.80;99.90
20726;DHT22;10524;48.132;8.518;2023-05-10T15:56:15;16.20;99.90
20726;DHT22;10524;48.132;8.518;2023-05-10T15:58:41;16.10;99.90
20726;DHT22;10524;48.132;8.518;2023-05-10T16:01:09;16.10;99.90
20726;DHT22;10524;48.132;8.518;2023-05-10T16:03:36;16.10;99.90
20726;DHT22;10524;48.132;8.518;2023-05-10T16:06:02;16.20;99.90